Time;durP1;ratioP1;P1;durP2;ratioP2;P2;SDS_P1;SDS_P2;PMS_P1;PMS_P2;Temp;Humidity;BMP_temperature;BMP_pressure;BME280_temperature;BME280_humidity;BME280_pressure;Samples;Min_cycle;Max_cycle;Signal;HPM_P1;HPM_P2
2024/01/18 00:02:18;;;;;;;40.07;20.87;;;;;;;3.51;73.61;97286.25;6186954;22;100936;-81
2024/01/18 00:04:43;;;;;;;40.97;21.63;;;;;;;3.75;73.52;97316.06;6212957;22;97427;-80
2024/01/18 00:07:09;;;;;;;37.60;21.90;;;;;;;3.74;73.51;97310.94;6213040;22;96597;-80
2024/01/18 00:09:34;;;;;;;38.27;21.50;;;;;;;3.90;73.48;97327.38;6162037;22;96713;-80
2024/01/18 00:12:00;;;;;;;36.93;19.63;;;;;;;3.69;73.39;97307.75;6160802;22;99972;-80
2024/01/18 00:14:26;;;;;;;38.47;20.60;;;;;;;3.85;73.25;97330.19;6212531;22;97745;-80
2024/01/18 00:16:51;;;;;;;39.20;19.60;;;;;;;3.65;73.02;97283.75;6162188;22;96518;-80
2024/01/18 00:19:17;;;;;;;38.03;22.03;;;;;;;3.68;73.10;97299.13;6188475;22;96865;-80
2024/01/18 00:21:42;;;;;;;39.33;21.23;;;;;;;3.94;73.67;97326.25;6213729;22;97588;-80
2024/01/18 00:24:08;;;;;;;39.87;21.93;;;;;;;3.95;73.00;97329.69;6213496;22;99982;-81
2024/01/18 00:26:33;;;;;;;34.00;20.87;;;;;;;3.94;73.25;97333.22;6188345;22;96564;-81
2024/01/18 00:29:00;;;;;;;34.67;19.37;;;;;;;3.93;73.67;97341.94;6214708;22;96714;-81
2024/01/18 00:31:25;;;;;;;31.97;20.40;;;;;;;3.81;73.17;97318.31;6213540;22;99918;-80
2024/01/18 00:33:52;;;;;;;31.60;18.77;;;;;;;3.91;73.34;97334.22;6215199;22;97399;-79
2024/01/18 00:36:18;;;;;;;38.83;21.90;;;;;;;3.80;73.40;97323.59;6162753;22;96682;-80
2024/01/18 00:38:44;;;;;;;33.73;19.67;;;;;;;3.91;73.24;97354.97;6188599;22;96756;-80
2024/01/18 00:41:09;;;;;;;32.30;20.30;;;;;;;3.79;73.21;97320.16;6213664;22;97927;-80
2024/01/18 00:43:35;;;;;;;35.70;20.53;;;;;;;3.91;73.53;97336.81;6162700;22;101416;-79
2024/01/18 00:46:04;;;;;;;35.17;20.40;;;;;;;4.05;73.09;97357.66;6163167;22;96491;-80
2024/01/18 00:48:30;;;;;;;36.47;20.67;;;;;;;3.98;72.63;97325.16;6188600;22;96650;-80
2024/01/18 00:50:56;;;;;;;37.00;20.23;;;;;;;3.93;73.53;97340.19;6188064;22;97748;-79
2024/01/18 00:53:21;;;;;;;34.37;18.90;;;;;;;3.95;73.44;97342.66;6157767;22;101456;-80
2024/01/18 00:55:47;;;;;;;29.70;18.87;;;;;;;3.82;73.29;97332.97;6183620;22;96625;-80
2024/01/18 00:58:13;;;;;;;33.47;19.27;;;;;;;4.03;73.05;97363.84;6183462;22;96693;-79
2024/01/18 01:00:39;;;;;;;33.77;19.13;;;;;;;4.00;72.78;97356.25;6182527;22;97877;-80
2024/01/18 01:03:04;;;;;;;31.20;18.03;;;;;;;3.97;72.64;97346.84;6132548;22;100519;-80
2024/01/18 01:05:30;;;;;;;33.57;19.30;;;;;;;3.84;72.78;97338.91;6158183;22;96493;-80
2024/01/18 01:07:55;;;;;;;32.87;20.90;;;;;;;4.06;72.67;97384.47;6183411;22;96781;-79
2024/01/18 01:10:21;;;;;;;31.17;18.60;;;;;;;4.06;72.99;97374.06;6157571;22;100788;-80
2024/01/18 01:12:47;;;;;;;30.80;18.73;;;;;;;4.12;72.49;97385.88;6157296;22;101340;-79
2024/01/18 01:15:12;;;;;;;28.93;17.87;;;;;;;4.14;72.37;97379.69;6158183;22;96539;-79
2024/01/18 01:17:38;;;;;;;32.17;19.10;;;;;;;3.98;72.11;97347.69;6183761;22;96785;-79
2024/01/18 01:20:05;;;;;;;27.90;17.80;;;;;;;4.24;72.09;97387.81;6157209;22;99692;-79
2024/01/18 01:22:30;;;;;;;33.10;19.93;;;;;;;4.01;72.28;97361.34;6182718;22;98810;-79
2024/01/18 01:24:56;;;;;;;34.87;21.10;;;;;;;3.94;73.13;97356.56;6132271;22;96489;-79
2024/01/18 01:27:21;;;;;;;32.53;19.67;;;;;;;4.03;72.96;97362.09;6132812;22;96842;-78
2024/01/18 01:29:47;;;;;;;35.20;19.47;;;;;;;4.11;72.91;97368.66;6182804;22;98351;-79
2024/01/18 01:32:12;;;;;;;34.33;20.27;;;;;;;4.00;72.61;97345.84;6157353;22;101586;-78
2024/01/18 01:34:38;;;;;;;30.57;18.57;;;;;;;4.13;72.43;97362.44;6157929;22;96572;-79
2024/01/18 01:37:03;;;;;;;30.70;17.90;;;;;;;4.32;72.55;97389.06;6157843;22;96917;-83
2024/01/18 01:39:30;;;;;;;29.73;18.57;;;;;;;4.03;72.59;97354.31;6132417;22;101247;-79
2024/01/18 01:41:55;;;;;;;29.33;17.70;;;;;;;4.21;72.40;97373.22;6158164;22;97904;-80
2024/01/18 01:44:21;;;;;;;32.40;18.23;;;;;;;4.30;72.21;97395.25;6184759;22;96475;-78
2024/01/18 01:46:46;;;;;;;28.13;16.37;;;;;;;4.24;72.64;97395.59;6158106;22;96708;-79
2024/01/18 01:49:12;;;;;;;24.83;15.13;;;;;;;4.20;72.67;97392.34;6183726;22;97581;-79
2024/01/18 01:51:48;;;;;;;27.87;18.70;;;;;;;4.32;72.64;97407.25;6182743;22;97803;-78
2024/01/18 01:54:15;;;;;;;23.90;15.37;;;;;;;4.40;72.51;97411.19;6175550;22;96723;-81
2024/01/18 01:56:41;;;;;;;23.00;15.50;;;;;;;4.32;72.77;97414.19;6162766;22;96758;-79
2024/01/18 01:59:08;;;;;;;19.73;13.97;;;;;;;4.22;73.06;97382.72;6188018;22;97752;-79
2024/01/18 02:01:35;;;;;;;27.47;15.33;;;;;;;4.36;72.99;97413.09;6188083;22;98255;-79
2024/01/18 02:04:01;;;;;;;24.60;15.43;;;;;;;4.31;72.92;97400.38;6188092;22;96465;-78
2024/01/18 02:06:26;;;;;;;23.93;14.50;;;;;;;4.31;73.00;97395.19;6163200;22;96792;-79
2024/01/18 02:08:52;;;;;;;26.77;15.33;;;;;;;4.39;73.14;97409.50;6187772;22;97885;-78
2024/01/18 02:11:17;;;;;;;26.63;15.43;;;;;;;4.41;73.11;97411.09;6187466;22;101484;-79
2024/01/18 02:13:43;;;;;;;24.20;15.80;;;;;;;4.41;73.56;97421.47;6187217;22;96486;-79
2024/01/18 02:16:09;;;;;;;21.57;14.50;;;;;;;4.34;73.39;97412.34;6213836;22;96607;-79
2024/01/18 02:18:35;;;;;;;21.73;15.00;;;;;;;4.45;73.31;97435.13;6187727;22;101025;-79
2024/01/18 02:21:03;;;;;;;26.37;15.33;;;;;;;4.18;73.01;97399.38;6213230;22;97834;-78
2024/01/18 02:23:30;;;;;;;19.40;13.03;;;;;;;4.39;73.04;97422.47;6187848;22;96685;-78
2024/01/18 02:25:56;;;;;;;25.00;14.07;;;;;;;4.47;72.39;97430.69;6187867;22;96703;-78
2024/01/18 02:28:21;;;;;;;24.17;14.17;;;;;;;4.36;72.51;97414.84;6187709;22;97487;-80
2024/01/18 02:30:47;;;;;;;21.23;13.60;;;;;;;4.18;72.58;97409.75;6188153;22;97263;-79
2024/01/18 02:33:12;;;;;;;21.93;13.53;;;;;;;4.48;72.91;97442.75;6162566;22;96470;-78
2024/01/18 02:35:37;;;;;;;21.17;13.77;;;;;;;4.33;72.52;97421.06;6162670;22;96858;-78
2024/01/18 02:38:04;;;;;;;22.17;13.23;;;;;;;4.48;72.77;97433.22;6186950;22;101405;-79
2024/01/18 02:40:29;;;;;;;19.90;13.53;;;;;;;4.48;72.45;97441.00;6212647;22;97712;-79
2024/01/18 02:42:55;;;;;;;19.60;13.10;;;;;;;4.49;72.61;97441.84;6213431;22;96564;-79
2024/01/18 02:45:21;;;;;;;27.07;14.80;;;;;;;4.39;72.43;97427.66;6162610;22;96821;-78
2024/01/18 02:47:46;;;;;;;20.63;13.53;;;;;;;4.44;73.00;97449.88;6187430;22;101459;-79
2024/01/18 02:50:12;;;;;;;24.03;13.87;;;;;;;4.44;72.46;97443.84;6162290;22;101488;-78
2024/01/18 02:52:38;;;;;;;21.30;13.63;;;;;;;4.53;72.51;97459.75;6162377;22;96481;-78
2024/01/18 02:55:06;;;;;;;25.73;14.43;;;;;;;4.42;72.79;97450.88;6188353;22;96668;-79
2024/01/18 02:57:31;;;;;;;21.30;13.33;;;;;;;4.26;72.70;97424.91;6162204;22;101636;-78
2024/01/18 02:59:57;;;;;;;19.50;13.20;;;;;;;4.51;73.14;97458.19;6213025;22;97177;-78
2024/01/18 03:02:22;;;;;;;19.83;12.33;;;;;;;4.55;72.25;97467.47;6212825;22;96456;-78
2024/01/18 03:04:48;;;;;;;20.03;12.20;;;;;;;4.49;72.55;97462.63;6214939;22;96680;-78
2024/01/18 03:07:13;;;;;;;17.53;11.87;;;;;;;4.41;72.74;97434.47;6212936;22;97575;-78
2024/01/18 03:09:39;;;;;;;16.83;11.73;;;;;;;4.49;72.96;97447.03;6187712;22;97896;-78
2024/01/18 03:12:04;;;;;;;20.90;12.77;;;;;;;4.51;73.18;97463.41;6187479;22;96473;-79
2024/01/18 03:14:31;;;;;;;18.27;12.00;;;;;;;4.51;72.79;97466.00;6187774;22;96875;-78
2024/01/18 03:16:56;;;;;;;19.50;12.00;;;;;;;4.24;73.02;97430.19;6212775;22;101403;-78
2024/01/18 03:19:22;;;;;;;20.40;12.60;;;;;;;4.47;72.97;97486.06;6213380;22;97447;-78
2024/01/18 03:21:47;;;;;;;19.43;12.20;;;;;;;4.29;73.14;97466.31;6213286;22;96638;-78
2024/01/18 03:24:13;;;;;;;18.77;11.60;;;;;;;4.41;73.16;97489.00;6187879;22;96785;-78
2024/01/18 03:26:38;;;;;;;19.03;12.60;;;;;;;4.38;72.73;97470.16;6161391;22;101560;-78
2024/01/18 03:29:05;;;;;;;13.63;10.40;;;;;;;4.51;72.53;97479.81;6187252;22;100163;-78
2024/01/18 03:31:30;;;;;;;19.47;12.00;;;;;;;4.41;72.76;97485.56;6162407;22;96552;-78
2024/01/18 03:33:56;;;;;;;20.17;12.33;;;;;;;4.45;72.71;97500.06;6187821;22;96446;-78
2024/01/18 03:36:21;;;;;;;20.07;12.97;;;;;;;4.50;72.46;97500.66;6212783;22;97946;-80
2024/01/18 03:38:47;;;;;;;21.47;12.73;;;;;;;4.43;72.07;97500.16;6161806;22;101095;-78
2024/01/18 03:41:15;;;;;;;20.47;13.23;;;;;;;4.43;72.63;97507.97;6162054;22;96481;-78
2024/01/18 03:43:40;;;;;;;23.10;13.27;;;;;;;4.41;72.71;97514.16;6213046;22;96801;-78
2024/01/18 03:46:06;;;;;;;21.40;13.03;;;;;;;4.24;72.83;97484.72;6187292;22;97525;-78
2024/01/18 03:48:31;;;;;;;23.90;14.10;;;;;;;4.51;72.20;97523.16;6214231;22;97202;-79
2024/01/18 03:50:57;;;;;;;25.47;14.30;;;;;;;4.54;71.95;97543.75;6212531;22;96718;-78
2024/01/18 03:53:22;;;;;;;19.70;13.13;;;;;;;4.41;71.85;97524.53;6162659;22;96819;-78
2024/01/18 03:55:48;;;;;;;23.10;15.20;;;;;;;4.16;72.00;97499.88;6215456;22;97963;-78
2024/01/18 03:58:13;;;;;;;22.93;13.77;;;;;;;4.29;72.28;97534.66;6188181;22;101422;-78
2024/01/18 04:00:39;;;;;;;19.37;12.90;;;;;;;4.49;72.14;97556.16;6188571;22;96440;-78
2024/01/18 04:03:05;;;;;;;22.90;13.40;;;;;;;4.43;72.00;97562.50;6188704;22;96799;-79
2024/01/18 04:05:31;;;;;;;20.83;13.93;;;;;;;4.52;72.11;97568.97;6188062;22;101647;-78
2024/01/18 04:07:56;;;;;;;21.03;13.57;;;;;;;4.48;72.00;97567.44;6188683;22;100612;-78
2024/01/18 04:10:22;;;;;;;22.53;13.37;;;;;;;4.41;72.10;97573.91;6215805;22;96606;-78
2024/01/18 04:12:47;;;;;;;21.50;13.53;;;;;;;4.06;72.07;97529.84;6188648;22;96740;-78
2024/01/18 04:15:13;;;;;;;22.47;14.90;;;;;;;4.29;71.77;97572.78;6213188;22;97337;-78
2024/01/18 04:17:38;;;;;;;20.37;13.70;;;;;;;4.09;71.70;97561.66;6162792;22;101553;-78
2024/01/18 04:20:06;;;;;;;17.57;13.23;;;;;;;4.24;71.23;97559.19;6214063;22;96461;-78
2024/01/18 04:22:32;;;;;;;20.20;14.67;;;;;;;4.18;71.53;97559.50;6163375;22;96702;-78
2024/01/18 04:24:58;;;;;;;22.60;15.33;;;;;;;4.13;71.69;97571.88;6162768;22;101223;-78
2024/01/18 04:27:23;;;;;;;20.57;14.27;;;;;;;4.08;71.24;97574.72;6188152;22;101218;-78
2024/01/18 04:29:49;;;;;;;22.00;15.67;;;;;;;4.28;71.39;97586.69;6188471;22;96411;-78
2024/01/18 04:32:14;;;;;;;24.47;15.83;;;;;;;4.25;71.00;97585.09;6163774;22;96784;-78
2024/01/18 04:34:40;;;;;;;23.77;15.93;;;;;;;4.25;71.09;97592.88;6188056;22;100914;-78
2024/01/18 04:37:05;;;;;;;22.93;14.53;;;;;;;4.12;71.08;97580.59;6187917;22;101699;-79
2024/01/18 04:39:31;;;;;;;22.90;15.30;;;;;;;4.24;70.75;97605.94;6213497;22;96459;-78
2024/01/18 04:41:56;;;;;;;23.40;15.80;;;;;;;4.20;71.10;97605.25;6214091;22;96627;-78
2024/01/18 04:44:22;;;;;;;22.67;17.00;;;;;;;4.24;70.65;97609.38;6213028;22;99777;-78
2024/01/18 04:46:47;;;;;;;22.27;15.43;;;;;;;4.25;70.25;97611.06;6162827;22;101433;-78
2024/01/18 04:49:13;;;;;;;26.07;16.30;;;;;;;4.21;70.74;97609.53;6163186;22;96463;-78
2024/01/18 04:51:39;;;;;;;22.80;16.57;;;;;;;4.20;70.48;97596.63;6215459;22;96677;-78
2024/01/18 04:54:05;;;;;;;22.83;16.30;;;;;;;4.30;70.62;97629.84;6213013;22;97879;-78
2024/01/18 04:56:30;;;;;;;24.40;17.33;;;;;;;4.15;70.34;97609.84;6188437;22;100797;-78
2024/01/18 04:58:56;;;;;;;23.87;16.40;;;;;;;4.19;70.32;97624.38;6188263;22;96548;-78
2024/01/18 05:01:22;;;;;;;21.37;15.80;;;;;;;4.20;70.41;97633.81;6188468;22;97014;-79
2024/01/18 05:03:47;;;;;;;23.57;15.57;;;;;;;4.08;70.21;97609.31;6161871;22;99549;-78
2024/01/18 05:06:13;;;;;;;25.37;17.13;;;;;;;4.09;70.42;97617.94;6213547;22;97504;-79
2024/01/18 05:08:38;;;;;;;22.73;16.80;;;;;;;4.05;70.55;97643.22;6213825;22;96524;-78
2024/01/18 05:11:04;;;;;;;25.53;17.57;;;;;;;4.11;70.66;97667.22;6188392;22;96739;-79
2024/01/18 05:13:30;;;;;;;25.57;16.93;;;;;;;4.15;70.49;97669.56;6187398;22;99781;-78
2024/01/18 05:15:59;;;;;;;21.13;15.13;;;;;;;3.89;70.34;97644.91;6213330;22;97776;-78
2024/01/18 05:18:24;;;;;;;23.97;15.77;;;;;;;3.98;70.27;97657.41;6188702;22;96429;-80
2024/01/18 05:20:50;;;;;;;21.67;14.93;;;;;;;4.14;70.10;97683.47;6163235;22;96795;-79
2024/01/18 05:23:15;;;;;;;22.03;15.80;;;;;;;4.07;70.31;97687.25;6187862;22;101332;-79
2024/01/18 05:25:41;;;;;;;20.50;14.83;;;;;;;3.82;70.02;97654.75;6187992;22;97970;-79
2024/01/18 05:28:06;;;;;;;23.43;15.70;;;;;;;4.05;69.89;97687.34;6214764;22;96360;-79
2024/01/18 05:30:32;;;;;;;23.83;15.33;;;;;;;4.07;69.52;97690.72;6213848;22;96736;-78
2024/01/18 05:32:57;;;;;;;22.47;15.57;;;;;;;4.05;70.11;97692.56;6162298;22;101217;-78
2024/01/18 05:35:23;;;;;;;22.07;14.97;;;;;;;4.05;69.42;97709.88;6187596;22;100876;-78
2024/01/18 05:37:49;;;;;;;23.10;15.30;;;;;;;4.01;69.87;97711.78;6213640;22;96402;-79
2024/01/18 05:40:14;;;;;;;23.03;15.73;;;;;;;3.93;69.88;97713.94;6188225;22;96828;-78
2024/01/18 05:42:40;;;;;;;23.00;15.63;;;;;;;3.94;69.78;97718.19;6162378;22;101756;-80
2024/01/18 05:45:06;;;;;;;22.17;15.27;;;;;;;3.94;69.59;97717.34;6163088;22;100863;-78
2024/01/18 05:47:31;;;;;;;21.30;15.77;;;;;;;3.87;69.67;97690.88;6215304;22;96463;-78
2024/01/18 05:49:57;;;;;;;21.73;15.07;;;;;;;4.05;69.17;97722.88;6213674;22;96750;-78
2024/01/18 05:52:22;;;;;;;24.37;17.20;;;;;;;3.79;69.49;97708.56;6212597;22;97975;-78
2024/01/18 05:54:48;;;;;;;21.50;15.97;;;;;;;3.85;69.63;97711.69;6187331;22;101222;-78
2024/01/18 05:57:13;;;;;;;24.50;17.57;;;;;;;3.85;69.26;97719.47;6188062;22;96526;-78
2024/01/18 05:59:39;;;;;;;29.20;18.87;;;;;;;3.75;69.92;97705.28;6162740;22;96840;-78
2024/01/18 06:02:04;;;;;;;27.57;18.67;;;;;;;3.95;69.21;97743.22;6187670;22;97645;-80
2024/01/18 06:04:30;;;;;;;27.97;18.90;;;;;;;3.70;69.62;97735.78;6162146;22;101774;-81
2024/01/18 06:06:57;;;;;;;28.50;18.83;;;;;;;3.82;69.33;97750.75;6188079;22;96438;-80
2024/01/18 06:09:23;;;;;;;31.50;21.10;;;;;;;3.77;69.17;97750.13;6214201;22;96692;-78
2024/01/18 06:11:49;;;;;;;29.60;20.87;;;;;;;3.76;69.39;97756.25;6212855;22;97510;-80
2024/01/18 06:14:15;;;;;;;33.07;20.70;;;;;;;3.67;69.17;97740.28;6212708;22;97839;-79
2024/01/18 06:16:41;;;;;;;33.60;22.57;;;;;;;3.73;69.20;97766.78;6187507;22;96462;-81
2024/01/18 06:19:07;;;;;;;31.80;21.93;;;;;;;3.77;69.49;97767.47;6188023;22;96722;-80
2024/01/18 06:21:32;;;;;;;30.73;19.80;;;;;;;3.86;69.02;97777.41;6162272;22;101811;-78
2024/01/18 06:23:58;;;;;;;36.27;21.63;;;;;;;3.77;68.90;97778.69;6162336;22;101300;-79
2024/01/18 06:26:23;;;;;;;34.83;22.40;;;;;;;3.86;69.30;97791.22;6162570;22;96539;-79
2024/01/18 06:28:49;;;;;;;35.83;22.67;;;;;;;3.67;68.81;97772.25;6213582;22;96792;-79
2024/01/18 06:31:14;;;;;;;31.37;22.23;;;;;;;3.78;69.08;97801.16;6187156;22;99771;-78
2024/01/18 06:33:41;;;;;;;35.80;23.73;;;;;;;3.71;69.10;97797.13;6188014;22;100250;-78
2024/01/18 06:36:11;;;;;;;34.60;23.00;;;;;;;3.66;69.01;97803.44;6187720;22;96552;-81
2024/01/18 06:38:36;;;;;;;33.30;21.40;;;;;;;3.65;68.86;97804.38;6213628;22;96785;-80
2024/01/18 06:41:02;;;;;;;30.70;21.27;;;;;;;3.38;68.80;97769.25;6212475;22;97648;-80
2024/01/18 06:43:28;;;;;;;34.23;22.17;;;;;;;3.66;68.55;97796.50;6212682;22;100751;-79
2024/01/18 06:45:55;;;;;;;35.53;23.87;;;;;;;3.60;68.66;97807.16;6213486;22;96449;-78
2024/01/18 06:48:24;;;;;;;35.30;23.20;;;;;;;3.70;68.71;97829.19;6162588;22;96764;-81
2024/01/18 06:50:52;;;;;;;34.43;22.17;;;;;;;3.71;69.14;97825.69;6212834;22;97894;-79
2024/01/18 06:53:18;;;;;;;39.10;23.87;;;;;;;3.33;68.97;97785.91;6157187;22;101220;-78
2024/01/18 06:55:44;;;;;;;35.70;23.00;;;;;;;3.65;69.24;97831.16;6184447;22;96389;-78
2024/01/18 06:58:09;;;;;;;34.93;23.73;;;;;;;3.49;68.80;97810.25;6133004;22;96779;-78
2024/01/18 07:00:35;;;;;;;39.37;24.70;;;;;;;3.62;68.89;97826.94;6157214;22;97822;-78
2024/01/18 07:03:00;;;;;;;37.93;24.30;;;;;;;3.62;68.76;97829.53;6157033;22;101322;-79
2024/01/18 07:05:26;;;;;;;36.57;24.67;;;;;;;3.51;68.57;97811.00;6182162;22;96470;-79
2024/01/18 07:07:51;;;;;;;35.47;22.67;;;;;;;3.60;68.63;97835.69;6182744;22;96782;-79
2024/01/18 07:10:17;;;;;;;41.23;24.80;;;;;;;3.43;68.83;97823.47;6131949;22;101484;-79
2024/01/18 07:12:44;;;;;;;42.70;25.93;;;;;;;3.63;68.59;97845.94;6183605;22;97954;-79
2024/01/18 07:15:09;;;;;;;35.50;24.43;;;;;;;3.57;68.81;97846.22;6182801;22;96420;-78
2024/01/18 07:17:35;;;;;;;38.17;25.17;;;;;;;3.54;68.38;97839.41;6157425;22;96835;-78
2024/01/18 07:20:02;;;;;;;40.27;27.20;;;;;;;3.57;68.32;97831.47;6131764;22;101123;-80
2024/01/18 07:22:28;;;;;;;39.03;25.93;;;;;;;3.66;67.85;97852.75;6157357;22;101528;-78
2024/01/18 07:24:54;;;;;;;42.07;27.20;;;;;;;3.67;68.07;97865.66;6182622;22;96545;-78
2024/01/18 07:27:19;;;;;;;45.00;27.27;;;;;;;3.62;67.88;97859.81;6156995;22;96794;-79
2024/01/18 07:29:45;;;;;;;42.20;27.87;;;;;;;3.62;67.91;97858.06;6181658;22;97831;-78
2024/01/18 07:32:10;;;;;;;49.20;29.40;;;;;;;3.50;68.07;97837.88;6156752;22;97444;-79
2024/01/18 07:34:36;;;;;;;45.33;28.37;;;;;;;3.47;68.13;97832.81;6157085;22;96445;-84
2024/01/18 07:37:03;;;;;;;48.87;29.57;;;;;;;3.39;68.30;97822.78;6157153;22;96793;-79
2024/01/18 07:39:29;;;;;;;47.03;28.47;;;;;;;3.66;67.85;97860.53;6156598;22;101253;-78
2024/01/18 07:41:54;;;;;;;44.13;26.43;;;;;;;3.49;67.98;97851.75;6131785;22;101478;-79
2024/01/18 07:44:20;;;;;;;48.97;28.50;;;;;;;3.67;67.69;97875.19;6182337;22;96465;-79
2024/01/18 07:46:45;;;;;;;49.90;30.53;;;;;;;3.68;67.60;97874.28;6157588;22;96732;-81
2024/01/18 07:49:11;;;;;;;53.40;29.87;;;;;;;3.61;67.55;97871.13;6156505;22;101267;-79
2024/01/18 07:51:37;;;;;;;50.53;31.00;;;;;;;3.62;67.57;97870.19;6131471;22;101395;-79
2024/01/18 07:54:04;;;;;;;42.23;27.50;;;;;;;3.55;67.79;97856.69;6196297;22;96871;-79
2024/01/18 07:56:29;;;;;;;45.30;26.60;;;;;;;3.65;67.55;97877.84;6187149;22;96747;-78
2024/01/18 07:58:55;;;;;;;47.33;27.90;;;;;;;3.64;67.57;97883.97;6186816;22;101237;-80
2024/01/18 08:01:21;;;;;;;48.23;27.60;;;;;;;3.65;67.91;97884.78;6186758;22;101217;-80
2024/01/18 08:03:46;;;;;;;46.93;26.97;;;;;;;3.58;67.49;97872.09;6187466;22;96513;-80
2024/01/18 08:06:12;;;;;;;47.10;27.70;;;;;;;3.70;67.50;97893.22;6212836;22;96783;-80
2024/01/18 08:08:39;;;;;;;41.53;27.03;;;;;;;3.65;67.54;97893.41;6212483;22;97655;-79
2024/01/18 08:11:05;;;;;;;42.47;27.37;;;;;;;3.79;67.43;97919.59;6187375;22;101036;-79
2024/01/18 08:13:30;;;;;;;47.77;27.00;;;;;;;3.74;67.32;97923.31;6187157;22;96467;-79
2024/01/18 08:15:57;;;;;;;43.03;27.27;;;;;;;3.65;67.29;97911.56;6187170;22;96821;-79
2024/01/18 08:18:23;;;;;;;46.23;28.27;;;;;;;3.68;67.03;97919.22;6186006;22;101189;-78
2024/01/18 08:20:50;;;;;;;56.00;35.03;;;;;;;3.69;67.03;97920.06;6186373;22;101879;-79
2024/01/18 08:23:15;;;;;;;51.87;31.07;;;;;;;3.67;67.09;97908.94;6187041;22;96637;-78
2024/01/18 08:25:41;;;;;;;53.27;31.30;;;;;;;3.71;67.01;97895.72;6212784;22;96776;-79
2024/01/18 08:28:06;;;;;;;57.03;32.47;;;;;;;3.79;66.72;97910.97;6186653;22;101692;-80
2024/01/18 08:30:32;;;;;;;53.70;31.23;;;;;;;3.68;66.63;97902.81;6161331;22;100561;-79
2024/01/18 08:32:57;;;;;;;46.03;28.20;;;;;;;3.73;66.74;97921.63;6161733;22;97131;-79
2024/01/18 08:35:23;;;;;;;52.97;31.47;;;;;;;3.65;66.68;97910.75;6187436;22;96840;-79
2024/01/18 08:37:48;;;;;;;53.37;29.77;;;;;;;3.72;66.77;97935.50;6186617;22;101408;-79
2024/01/18 08:40:16;;;;;;;45.07;24.60;;;;;;;3.73;67.01;97937.19;6188808;22;96590;-80
2024/01/18 08:42:45;;;;;;;42.20;25.23;;;;;;;3.84;66.76;97953.97;6187884;22;96524;-78
2024/01/18 08:45:11;;;;;;;45.70;26.53;;;;;;;3.86;66.39;97944.34;6163347;22;96698;-79
2024/01/18 08:47:36;;;;;;;45.53;27.60;;;;;;;3.75;66.90;97935.34;6187915;22;101335;-80
2024/01/18 08:50:03;;;;;;;45.67;27.53;;;;;;;3.65;66.81;97921.97;6213455;22;98353;-79
2024/01/18 08:52:28;;;;;;;47.77;29.23;;;;;;;3.85;67.04;97966.03;6162956;22;96602;-79
2024/01/18 08:54:54;;;;;;;44.43;27.20;;;;;;;3.72;66.81;97940.69;6241389;22;96778;-78
2024/01/18 08:57:19;;;;;;;45.43;26.33;;;;;;;3.73;66.71;97932.00;6218455;22;101315;-78
2024/01/18 08:59:45;;;;;;;40.07;25.93;;;;;;;3.78;66.87;97959.44;6193452;22;100968;-80
2024/01/18 09:02:11;;;;;;;41.83;26.60;;;;;;;3.77;66.64;97954.31;6246313;22;96402;-78
2024/01/18 09:04:38;;;;;;;39.13;25.80;;;;;;;3.64;66.65;97930.66;6218968;22;96513;-80
2024/01/18 09:07:03;;;;;;;38.73;25.13;;;;;;;3.80;66.83;97961.97;6218249;22;97939;-79
2024/01/18 09:09:29;;;;;;;42.33;24.87;;;;;;;3.79;66.61;97965.47;6192224;22;103087;-78
2024/01/18 09:11:55;;;;;;;36.73;24.50;;;;;;;3.78;66.53;97967.22;6193254;22;96593;-78
2024/01/18 09:14:20;;;;;;;39.50;25.30;;;;;;;3.78;66.65;97971.56;6246187;22;96569;-78
2024/01/18 09:16:46;;;;;;;38.77;24.10;;;;;;;3.72;66.55;97959.69;6192574;22;101409;-78
2024/01/18 09:19:11;;;;;;;38.23;25.87;;;;;;;3.72;66.34;97967.47;6192610;22;101273;-78
2024/01/18 09:21:41;;;;;;;42.73;25.10;;;;;;;3.63;66.26;97960.94;6218792;22;96443;-83
2024/01/18 09:24:06;;;;;;;35.93;23.57;;;;;;;3.76;66.58;98005.38;6193726;22;96670;-79
2024/01/18 09:26:32;;;;;;;39.57;24.33;;;;;;;3.68;66.34;97980.66;6193022;22;98066;-81
2024/01/18 09:28:57;;;;;;;36.73;22.50;;;;;;;3.49;66.11;97963.31;6192804;22;101774;-79
2024/01/18 09:31:23;;;;;;;31.27;20.73;;;;;;;3.77;66.01;98009.63;6167405;22;96490;-79
2024/01/18 09:33:49;;;;;;;35.20;23.93;;;;;;;3.84;66.11;98018.03;6167763;22;96802;-79
2024/01/18 09:36:14;;;;;;;33.33;22.23;;;;;;;3.87;65.77;98020.50;6192814;22;101198;-79
2024/01/18 09:38:40;;;;;;;33.80;21.47;;;;;;;3.82;65.34;98007.69;6192661;22;101321;-79
2024/01/18 09:41:07;;;;;;;34.97;22.90;;;;;;;3.85;65.46;98004.13;6218917;22;96536;-78
2024/01/18 09:43:35;;;;;;;34.03;21.90;;;;;;;3.90;65.20;97996.13;6218695;22;96698;-79
2024/01/18 09:46:04;;;;;;;40.97;23.30;;;;;;;3.78;65.43;97980.22;6192476;22;101583;-78
2024/01/18 09:48:30;;;;;;;35.77;21.13;;;;;;;3.74;65.35;97970.84;6193403;22;97812;-79
2024/01/18 09:50:56;;;;;;;32.80;21.43;;;;;;;3.96;65.87;98007.09;6218830;22;96472;-79
2024/01/18 09:53:22;;;;;;;31.77;22.03;;;;;;;3.74;65.52;97976.03;6218350;22;96681;-78
2024/01/18 09:55:51;;;;;;;32.67;21.27;;;;;;;3.90;65.72;98009.97;6192122;22;101283;-80
2024/01/18 09:58:16;;;;;;;33.30;22.07;;;;;;;3.98;65.03;98025.19;6192251;22;101643;-78
2024/01/18 10:00:44;;;;;;;51.77;26.90;;;;;;;3.82;65.20;97981.75;6193129;22;96481;-79
2024/01/18 10:03:10;;;;;;;48.37;25.60;;;;;;;3.96;64.89;98001.06;6193565;22;96733;-78
2024/01/18 10:05:36;;;;;;;52.50;27.13;;;;;;;4.12;65.09;98019.41;6192391;22;101507;-79
2024/01/18 10:08:03;;;;;;;44.23;26.27;;;;;;;4.14;65.03;98018.41;6192396;22;101383;-79
2024/01/18 10:10:29;;;;;;;37.60;23.33;;;;;;;4.14;64.54;98013.22;6192784;22;96585;-79
2024/01/18 10:12:55;;;;;;;35.30;22.13;;;;;;;3.91;65.07;97974.47;6193158;22;98106;-79
2024/01/18 10:15:33;;;;;;;42.07;26.07;;;;;;;4.21;64.83;98017.22;6192670;22;101412;-79
2024/01/18 10:18:00;;;;;;;42.40;26.63;;;;;;;4.05;65.50;97992.88;6192480;22;101210;-79
2024/01/18 10:20:26;;;;;;;39.07;25.00;;;;;;;4.05;64.92;98006.69;6167236;22;96461;-81
2024/01/18 10:22:54;;;;;;;37.13;23.73;;;;;;;3.99;65.01;97983.59;6192638;22;96743;-79
2024/01/18 10:25:22;;;;;;;40.50;24.47;;;;;;;4.08;64.60;97984.94;6218294;22;97925;-78
2024/01/18 10:27:51;;;;;;;30.63;20.93;;;;;;;4.39;64.19;98019.91;6167109;22;101541;-79
2024/01/18 10:30:16;;;;;;;33.70;22.20;;;;;;;4.27;64.43;98011.75;6218658;22;96457;-79
2024/01/18 10:32:45;;;;;;;39.03;24.50;;;;;;;4.38;64.31;98037.25;6193210;22;97010;-80
2024/01/18 10:35:24;;;;;;;44.97;26.13;;;;;;;4.31;64.52;98047.09;6193311;22;97920;-79
2024/01/18 10:38:10;;;;;;;43.13;25.57;;;;;;;4.28;64.10;98047.22;6218672;22;97873;-79
2024/01/18 10:40:36;;;;;;;38.87;22.80;;;;;;;4.05;64.17;98006.69;6192105;22;96514;-79
2024/01/18 10:43:03;;;;;;;45.40;25.60;;;;;;;4.16;64.38;98034.78;6167576;22;96749;-79
2024/01/18 10:45:30;;;;;;;42.67;24.93;;;;;;;4.12;63.99;98030.63;6191756;22;101303;-79
2024/01/18 10:47:56;;;;;;;43.13;25.47;;;;;;;4.30;64.54;98044.53;6192185;22;101739;-79
2024/01/18 10:50:22;;;;;;;40.80;24.40;;;;;;;4.23;64.24;98031.00;6218385;22;96895;-79
2024/01/18 10:52:48;;;;;;;39.17;24.00;;;;;;;4.25;64.06;98030.94;6192749;22;96850;-80
2024/01/18 10:55:14;;;;;;;36.30;23.10;;;;;;;3.98;64.48;97992.28;6192178;22;100959;-79
2024/01/18 10:57:40;;;;;;;36.53;22.90;;;;;;;4.06;64.34;98013.56;6167149;22;101382;-79
2024/01/18 11:00:07;;;;;;;43.60;22.20;;;;;;;4.19;64.10;98019.06;6167554;22;96492;-80
2024/01/18 11:02:39;;;;;;;38.03;23.50;;;;;;;4.19;64.14;98026.00;6192996;22;96589;-81
2024/01/18 11:05:10;;;;;;;40.80;24.13;;;;;;;4.09;64.22;98015.19;6167967;22;101417;-81
2024/01/18 11:07:40;;;;;;;40.92;24.92;;;;;;;4.16;64.30;98019.22;6167354;22;101332;-80
2024/01/18 11:10:11;;;;;;;38.07;24.50;;;;;;;3.89;64.18;97963.31;6217860;22;96488;-78
2024/01/18 11:12:41;;;;;;;39.43;23.97;;;;;;;4.30;64.06;98014.25;6167156;22;96861;-79
2024/01/18 11:15:10;;;;;;;36.00;23.93;;;;;;;4.36;63.98;98017.44;6167047;22;100955;-79
2024/01/18 11:17:38;;;;;;;40.57;25.10;;;;;;;4.32;64.13;98024.53;6217726;22;97323;-79